createdAt,value
2023-12-09T00:01:22.683Z,21.13
2023-12-09T00:03:50.933Z,33.03
2023-12-09T00:06:20.464Z,24.03
2023-12-09T00:08:48.694Z,24.97
2023-12-09T00:11:16.786Z,22.87
2023-12-09T00:13:44.800Z,23.83
2023-12-09T00:16:12.885Z,22.80
2023-12-09T00:18:42.504Z,24.50
2023-12-09T00:21:11.075Z,29.27
2023-12-09T00:23:47.285Z,34.07
2023-12-09T00:26:16.726Z,23.40
2023-12-09T00:28:45.351Z,24.97
2023-12-09T00:31:13.563Z,19.40
2023-12-09T00:33:43.297Z,26.37
2023-12-09T00:36:11.720Z,24.63
2023-12-09T00:38:41.111Z,24.83
2023-12-09T00:41:09.238Z,24.43
2023-12-09T00:43:37.314Z,26.83
2023-12-09T00:46:05.707Z,24.67
2023-12-09T00:48:33.891Z,23.47
2023-12-09T00:51:03.705Z,31.40
2023-12-09T00:53:31.782Z,27.47
2023-12-09T00:55:59.952Z,21.90
2023-12-09T00:58:28.334Z,26.03
2023-12-09T01:00:56.449Z,22.63
2023-12-09T01:03:24.646Z,26.07
2023-12-09T01:05:52.819Z,28.83
2023-12-09T01:08:22.247Z,20.73
2023-12-09T01:10:50.295Z,26.90
2023-12-09T01:13:18.421Z,26.93
2023-12-09T01:15:46.617Z,21.03
2023-12-09T01:18:14.758Z,22.83
2023-12-09T01:20:42.850Z,24.77
2023-12-09T01:23:10.936Z,24.07
2023-12-09T01:25:40.333Z,20.77
2023-12-09T01:28:09.019Z,22.20
2023-12-09T01:30:37.161Z,27.73
2023-12-09T01:33:05.584Z,26.40
2023-12-09T01:35:33.748Z,28.03
2023-12-09T01:38:01.806Z,23.93
2023-12-09T01:40:29.934Z,23.93
2023-12-09T01:42:59.318Z,26.47
2023-12-09T01:45:27.610Z,24.73
2023-12-09T01:47:55.858Z,20.87
2023-12-09T01:50:24.225Z,22.63
2023-12-09T01:52:52.384Z,26.57
2023-12-09T01:55:20.515Z,26.63
2023-12-09T01:57:48.574Z,21.40
2023-12-09T02:00:20.695Z,21.30
2023-12-09T02:02:50.077Z,22.50
2023-12-09T02:05:18.391Z,27.53
2023-12-09T02:07:46.796Z,19.60
2023-12-09T02:10:14.973Z,26.87
2023-12-09T02:12:50.159Z,24.90
2023-12-09T02:15:26.358Z,28.17
2023-12-09T02:18:01.486Z,23.40
2023-12-09T02:20:30.866Z,26.60
2023-12-09T02:23:10.601Z,23.93
2023-12-09T02:25:40.078Z,24.47
2023-12-09T02:28:12.117Z,25.50
2023-12-09T02:30:49.025Z,21.87
2023-12-09T02:33:19.088Z,22.13
2023-12-09T02:35:47.665Z,20.37
2023-12-09T02:38:18.752Z,23.83
2023-12-09T02:40:47.652Z,20.33
2023-12-09T02:43:16.156Z,22.93
2023-12-09T02:45:47.380Z,24.13
2023-12-09T02:48:15.663Z,18.93
2023-12-09T02:50:43.838Z,27.57
2023-12-09T02:53:11.895Z,20.53
2023-12-09T02:55:41.286Z,25.80
2023-12-09T02:58:09.365Z,22.00
2023-12-09T03:00:37.752Z,25.17
2023-12-09T03:03:06.095Z,28.57
2023-12-09T03:05:34.212Z,22.20
2023-12-09T03:08:02.589Z,22.17
2023-12-09T03:10:30.628Z,26.50
2023-12-09T03:13:00.570Z,26.03
2023-12-09T03:15:28.726Z,26.93
2023-12-09T03:17:56.999Z,26.47
2023-12-09T03:20:26.424Z,21.93
2023-12-09T03:22:54.433Z,21.57
2023-12-09T03:25:22.485Z,29.47
2023-12-09T03:27:50.497Z,28.20
2023-12-09T03:30:19.943Z,30.87
2023-12-09T03:32:48.190Z,28.63
2023-12-09T03:35:16.225Z,24.60
2023-12-09T03:37:44.459Z,26.93
2023-12-09T03:40:13.538Z,21.83
2023-12-09T03:42:40.669Z,27.53
2023-12-09T03:45:09.464Z,18.53
2023-12-09T03:47:38.946Z,32.17
2023-12-09T03:50:08.165Z,31.00
2023-12-09T03:52:36.206Z,24.67
2023-12-09T03:55:05.144Z,29.13
2023-12-09T03:57:33.317Z,28.30
2023-12-09T04:00:01.433Z,28.13
2023-12-09T04:02:29.904Z,24.23
2023-12-09T04:05:00.153Z,27.10
2023-12-09T04:07:28.519Z,30.87
2023-12-09T04:09:56.529Z,29.17
2023-12-09T04:12:24.897Z,28.83
2023-12-09T04:14:53.232Z,29.10
2023-12-09T04:17:22.887Z,28.17
2023-12-09T04:19:53.129Z,27.43
2023-12-09T04:22:22.649Z,20.77
2023-12-09T04:24:50.687Z,28.60
2023-12-09T04:27:19.011Z,25.87
2023-12-09T04:29:47.134Z,27.77
2023-12-09T04:32:15.198Z,28.17
2023-12-09T04:34:43.916Z,29.07
2023-12-09T04:37:12.026Z,35.10
2023-12-09T04:39:41.472Z,29.33
2023-12-09T04:42:09.519Z,29.57
2023-12-09T04:44:37.602Z,28.50
2023-12-09T04:47:08.139Z,27.20
2023-12-09T04:49:36.657Z,25.60
2023-12-09T04:52:05.950Z,26.70
2023-12-09T04:54:34.068Z,27.87
2023-12-09T04:57:03.550Z,29.83
2023-12-09T04:59:31.669Z,25.63
2023-12-09T05:01:59.708Z,29.37
2023-12-09T05:04:27.798Z,25.83
2023-12-09T05:06:55.973Z,37.00
2023-12-09T05:09:24.573Z,33.03
2023-12-09T05:11:52.836Z,31.90
2023-12-09T05:14:22.275Z,29.37
2023-12-09T05:16:50.349Z,30.07
2023-12-09T05:19:18.476Z,25.57
2023-12-09T05:21:47.317Z,23.77
2023-12-09T05:24:15.450Z,26.87
2023-12-09T05:26:43.758Z,29.37
2023-12-09T05:29:11.941Z,21.43
2023-12-09T05:31:42.810Z,22.20
2023-12-09T05:34:11.107Z,25.07
2023-12-09T05:36:39.837Z,27.73
2023-12-09T05:39:08.129Z,22.47
2023-12-09T05:41:36.287Z,33.33
2023-12-09T05:44:04.576Z,25.90
2023-12-09T05:46:32.649Z,27.57
2023-12-09T05:49:02.104Z,24.57
2023-12-09T05:51:30.347Z,27.50
2023-12-09T05:53:58.466Z,29.57
2023-12-09T05:56:26.533Z,28.27
2023-12-09T05:58:54.648Z,24.50
2023-12-09T06:01:22.713Z,24.10
2023-12-09T06:03:50.998Z,25.97
2023-12-09T06:06:20.724Z,26.83
2023-12-09T06:08:48.977Z,26.43
2023-12-09T06:11:17.153Z,34.07
2023-12-09T06:13:45.164Z,34.93
2023-12-09T06:16:18.919Z,34.10
2023-12-09T06:18:48.023Z,42.33
2023-12-09T06:21:23.012Z,33.03
2023-12-09T06:23:51.813Z,39.23
2023-12-09T06:26:20.049Z,31.70
2023-12-09T06:28:48.186Z,35.63
2023-12-09T06:31:16.625Z,35.90
2023-12-09T06:33:44.852Z,28.83
2023-12-09T06:36:13.182Z,36.93
2023-12-09T06:38:42.935Z,37.60
2023-12-09T06:41:11.009Z,42.40
2023-12-09T06:43:40.691Z,34.57
2023-12-09T06:46:08.918Z,41.00
2023-12-09T06:48:39.385Z,36.93
2023-12-09T06:51:15.525Z,48.67
2023-12-09T06:53:45.310Z,51.53
2023-12-09T06:56:21.030Z,45.80
2023-12-09T06:58:49.420Z,40.03
2023-12-09T07:01:22.335Z,41.87
2023-12-09T07:03:51.128Z,39.40
2023-12-09T07:06:22.877Z,43.63
2023-12-09T07:08:52.522Z,37.97
2023-12-09T07:11:21.089Z,39.57
2023-12-09T07:13:49.886Z,42.80
2023-12-09T07:16:18.042Z,36.03
2023-12-09T07:18:47.819Z,32.43
2023-12-09T07:21:16.804Z,38.50
2023-12-09T07:23:46.697Z,36.27
2023-12-09T07:26:17.453Z,34.10
2023-12-09T07:28:46.115Z,39.43
2023-12-09T07:31:14.934Z,34.73
2023-12-09T07:33:43.287Z,36.37
2023-12-09T07:36:11.992Z,33.63
2023-12-09T07:38:40.068Z,31.87
2023-12-09T07:41:08.452Z,34.53
2023-12-09T07:43:40.218Z,28.13
2023-12-09T07:46:09.113Z,33.57
2023-12-09T07:48:37.503Z,32.53
2023-12-09T07:51:06.289Z,30.80
2023-12-09T07:53:34.383Z,32.40
2023-12-09T07:56:02.434Z,31.43
2023-12-09T07:58:30.512Z,26.37
2023-12-09T08:01:01.532Z,28.00
2023-12-09T08:03:32.009Z,30.13
2023-12-09T08:06:00.136Z,24.60
2023-12-09T08:08:28.406Z,25.80
2023-12-09T08:10:57.026Z,21.07
2023-12-09T08:13:25.111Z,26.87
2023-12-09T08:15:53.152Z,26.63
2023-12-09T08:18:22.660Z,25.50
2023-12-09T08:20:50.819Z,27.63
2023-12-09T08:23:18.945Z,23.70
2023-12-09T08:25:47.113Z,23.40
2023-12-09T08:28:15.215Z,23.83
2023-12-09T08:30:43.337Z,25.37
2023-12-09T08:33:11.524Z,24.30
2023-12-09T08:35:41.911Z,24.33
2023-12-09T08:38:10.180Z,24.70
2023-12-09T08:40:38.216Z,18.43
2023-12-09T08:43:06.245Z,21.03
2023-12-09T08:45:34.423Z,23.13
2023-12-09T08:48:02.724Z,19.63
2023-12-09T08:50:30.790Z,20.67
2023-12-09T08:53:00.610Z,20.07
2023-12-09T08:55:28.805Z,15.60
2023-12-09T08:57:56.925Z,15.97
2023-12-09T09:00:27.190Z,19.63
2023-12-09T09:02:57.009Z,16.10
2023-12-09T09:05:25.467Z,22.17
2023-12-09T09:07:53.904Z,14.47
2023-12-09T09:10:24.199Z,18.43
2023-12-09T09:12:52.545Z,14.67
2023-12-09T09:15:21.906Z,16.87
2023-12-09T09:17:50.026Z,11.50
2023-12-09T09:20:18.155Z,11.27
2023-12-09T09:22:48.111Z,11.90
2023-12-09T09:25:17.415Z,10.40
2023-12-09T09:27:49.519Z,20.77
2023-12-09T09:30:21.257Z,11.77
2023-12-09T09:32:49.584Z,12.87
2023-12-09T09:35:17.831Z,11.93
2023-12-09T09:37:45.880Z,13.13
2023-12-09T09:40:15.246Z,12.30
2023-12-09T09:42:52.614Z,7.00
2023-12-09T09:45:28.225Z,9.30
2023-12-09T09:48:05.080Z,8.80
2023-12-09T09:50:40.048Z,9.83
2023-12-09T09:53:10.118Z,16.53
2023-12-09T09:55:41.641Z,10.30
2023-12-09T09:58:12.044Z,5.80
2023-12-09T10:00:40.379Z,10.20
2023-12-09T10:03:08.688Z,8.37
2023-12-09T10:05:36.785Z,10.17
2023-12-09T10:08:06.503Z,5.40
2023-12-09T10:10:35.783Z,14.10
2023-12-09T10:13:03.929Z,11.37
2023-12-09T10:15:33.998Z,9.47
2023-12-09T10:18:05.869Z,6.10
2023-12-09T10:20:36.603Z,11.43
2023-12-09T10:23:04.752Z,7.60
2023-12-09T10:25:32.851Z,8.83
2023-12-09T10:28:01.164Z,8.37
2023-12-09T10:30:30.001Z,5.77
2023-12-09T10:33:01.347Z,11.70
2023-12-09T10:35:29.896Z,9.40
2023-12-09T10:38:02.895Z,6.93
2023-12-09T10:40:30.961Z,6.23
2023-12-09T10:42:59.178Z,8.53
2023-12-09T10:45:27.258Z,7.37
2023-12-09T10:47:56.041Z,10.90
2023-12-09T10:50:25.618Z,7.63
2023-12-09T10:52:53.683Z,5.27
2023-12-09T10:55:21.751Z,7.07
2023-12-09T10:57:51.363Z,6.10
2023-12-09T11:00:22.110Z,6.77
2023-12-09T11:02:52.317Z,8.40
2023-12-09T11:05:21.368Z,8.20
2023-12-09T11:07:51.776Z,4.57
2023-12-09T11:10:21.702Z,5.03
2023-12-09T11:12:50.340Z,5.40
2023-12-09T11:15:29.816Z,7.50
2023-12-09T11:18:08.165Z,7.27
2023-12-09T11:20:40.199Z,9.03
2023-12-09T11:23:12.348Z,6.47
2023-12-09T11:25:41.834Z,6.93
2023-12-09T11:28:11.827Z,9.53
2023-12-09T11:30:43.089Z,6.10
2023-12-09T11:33:11.957Z,8.60
2023-12-09T11:35:40.794Z,5.73
2023-12-09T11:38:11.854Z,7.53
2023-12-09T11:40:39.972Z,5.97
2023-12-09T11:43:09.507Z,6.30
2023-12-09T11:45:38.942Z,4.83
2023-12-09T11:48:07.688Z,3.67
2023-12-09T11:50:36.218Z,3.57
2023-12-09T11:53:04.327Z,5.67
2023-12-09T11:55:33.970Z,4.97
2023-12-09T11:58:02.119Z,3.80
2023-12-09T12:00:30.258Z,2.63
2023-12-09T12:02:58.396Z,3.13
2023-12-09T12:05:26.503Z,2.63
2023-12-09T12:07:54.593Z,4.07
2023-12-09T12:10:22.806Z,2.80
2023-12-09T12:12:52.374Z,3.63
2023-12-09T12:15:20.740Z,4.60
2023-12-09T12:17:50.081Z,2.00
2023-12-09T12:20:18.476Z,2.47
2023-12-09T12:22:46.686Z,3.90
2023-12-09T12:25:14.880Z,2.27
2023-12-09T12:27:46.931Z,2.40
2023-12-09T12:30:16.897Z,3.03
2023-12-09T12:32:45.327Z,2.83
2023-12-09T12:35:13.699Z,3.10
2023-12-09T12:37:42.646Z,2.97
2023-12-09T12:40:12.300Z,8.57
2023-12-09T12:42:40.716Z,3.70
2023-12-09T12:45:20.764Z,2.73
2023-12-09T12:47:49.794Z,2.47
2023-12-09T12:50:18.462Z,2.53
2023-12-09T12:52:46.930Z,2.30
2023-12-09T12:55:15.237Z,3.70
2023-12-09T12:57:44.812Z,2.77
2023-12-09T13:00:15.515Z,4.23
2023-12-09T13:02:45.431Z,3.00
2023-12-09T13:05:13.666Z,2.40
2023-12-09T13:07:41.860Z,3.03
2023-12-09T13:10:10.137Z,3.07
2023-12-09T13:12:38.790Z,4.27
2023-12-09T13:15:07.851Z,8.13
2023-12-09T13:17:36.696Z,3.80
2023-12-09T13:20:08.020Z,3.97
2023-12-09T13:22:36.924Z,2.30
2023-12-09T13:25:06.728Z,3.77
2023-12-09T13:27:35.352Z,3.43
2023-12-09T13:30:06.001Z,3.00
2023-12-09T13:32:34.311Z,3.20
2023-12-09T13:35:02.684Z,2.47
2023-12-09T13:37:32.278Z,1.90
2023-12-09T13:40:00.638Z,2.00
2023-12-09T13:42:29.582Z,1.80
2023-12-09T13:44:58.142Z,2.30
2023-12-09T13:47:26.406Z,2.50
2023-12-09T13:49:54.693Z,1.70
2023-12-09T13:52:23.866Z,2.20
2023-12-09T13:54:53.403Z,1.90
2023-12-09T13:57:21.565Z,2.27
2023-12-09T13:59:49.727Z,1.70
2023-12-09T14:02:18.695Z,3.57
2023-12-09T14:04:47.436Z,3.10
2023-12-09T14:07:16.696Z,2.43
2023-12-09T14:09:45.115Z,2.83
2023-12-09T14:12:14.825Z,2.60
2023-12-09T14:14:42.963Z,3.10
2023-12-09T14:17:12.941Z,3.23
2023-12-09T14:19:41.423Z,4.00
2023-12-09T14:22:11.168Z,4.67
2023-12-09T14:24:39.456Z,5.20
2023-12-09T14:27:07.731Z,7.10
2023-12-09T14:29:37.314Z,8.73
2023-12-09T14:32:05.898Z,7.73
2023-12-09T14:34:34.339Z,8.80
2023-12-09T14:37:03.226Z,8.70
2023-12-09T14:39:31.684Z,8.67
2023-12-09T14:41:59.875Z,8.03
2023-12-09T14:44:27.969Z,9.27
2023-12-09T14:46:57.510Z,8.07
2023-12-09T14:49:25.983Z,7.33
2023-12-09T14:51:54.245Z,6.17
2023-12-09T14:54:23.232Z,5.60
2023-12-09T14:56:51.447Z,6.47
2023-12-09T14:59:19.752Z,5.03
2023-12-09T15:01:47.987Z,6.13
2023-12-09T15:04:18.241Z,4.30
2023-12-09T15:06:49.118Z,6.17
2023-12-09T15:09:18.458Z,7.47
2023-12-09T15:11:48.550Z,8.77
2023-12-09T15:14:16.760Z,8.53
2023-12-09T15:16:45.119Z,6.30
2023-12-09T15:19:13.369Z,13.27
2023-12-09T15:21:43.326Z,7.63
2023-12-09T15:24:11.877Z,12.33
2023-12-09T15:26:40.605Z,10.17
2023-12-09T15:29:08.767Z,16.33
2023-12-09T15:31:36.956Z,21.37
2023-12-09T15:34:05.675Z,23.80
2023-12-09T15:36:33.960Z,22.30
2023-12-09T15:39:03.607Z,18.57
2023-12-09T15:41:32.526Z,19.20
2023-12-09T15:44:00.683Z,24.97
2023-12-09T15:46:28.926Z,24.20
2023-12-09T15:48:57.130Z,26.93
2023-12-09T15:51:25.358Z,20.47
2023-12-09T15:53:53.484Z,21.20
2023-12-09T15:56:23.755Z,22.43
2023-12-09T15:58:52.698Z,26.27
2023-12-09T16:01:20.881Z,21.67
2023-12-09T16:03:50.525Z,26.77
2023-12-09T16:06:18.779Z,21.63
2023-12-09T16:08:46.981Z,28.57
2023-12-09T16:11:15.087Z,19.43
2023-12-09T16:13:44.679Z,29.53
2023-12-09T16:16:14.534Z,22.57
2023-12-09T16:18:43.004Z,24.23
2023-12-09T16:21:11.242Z,22.57
2023-12-09T16:23:39.364Z,24.17
2023-12-09T16:26:07.807Z,19.67
2023-12-09T16:28:35.977Z,26.03
2023-12-09T16:31:06.230Z,26.30
2023-12-09T16:33:34.549Z,17.60
2023-12-09T16:36:02.822Z,23.93
2023-12-09T16:38:30.977Z,20.83
2023-12-09T16:40:59.151Z,22.23
2023-12-09T16:45:55.731Z,22.30
2023-12-09T16:48:25.537Z,28.17
2023-12-09T16:50:53.800Z,25.47
2023-12-09T16:53:23.441Z,25.27
2023-12-09T16:55:51.677Z,25.13
2023-12-09T16:58:20.489Z,23.40
2023-12-09T17:00:48.844Z,22.30
2023-12-09T17:03:17.137Z,21.67
2023-12-09T17:05:46.758Z,25.50
2023-12-09T17:08:14.875Z,23.00
2023-12-09T17:10:44.526Z,25.30
2023-12-09T17:13:12.703Z,25.10
2023-12-09T17:15:40.857Z,32.13
2023-12-09T17:18:10.416Z,27.03
2023-12-09T17:20:38.624Z,20.53
2023-12-09T17:23:08.096Z,24.07
2023-12-09T17:25:36.238Z,28.00
2023-12-09T17:28:05.159Z,29.50
2023-12-09T17:30:33.336Z,28.13
2023-12-09T17:33:01.549Z,26.57
2023-12-09T17:35:30.452Z,30.20
2023-12-09T17:37:58.928Z,32.57
2023-12-09T17:40:28.386Z,25.30
2023-12-09T17:42:56.587Z,27.87
2023-12-09T17:45:24.760Z,27.10
2023-12-09T17:47:52.983Z,30.00
2023-12-09T17:50:22.580Z,34.73
2023-12-09T17:52:50.800Z,30.33
2023-12-09T17:55:18.985Z,28.37
2023-12-09T17:57:48.561Z,25.57
2023-12-09T18:00:17.061Z,28.50
2023-12-09T18:02:45.345Z,35.83
2023-12-09T18:05:13.591Z,32.03
2023-12-09T18:07:42.081Z,27.30
2023-12-09T18:10:10.474Z,30.73
2023-12-09T18:12:38.675Z,34.07
2023-12-09T18:15:09.268Z,36.00
2023-12-09T18:17:37.559Z,38.93
2023-12-09T18:20:06.713Z,30.37
2023-12-09T18:22:34.834Z,37.67
2023-12-09T18:25:02.996Z,40.17
2023-12-09T18:27:32.696Z,44.47
2023-12-09T18:30:00.969Z,40.33
2023-12-09T18:32:34.498Z,33.90
2023-12-09T18:35:09.018Z,29.43
2023-12-09T18:37:37.760Z,33.77
2023-12-09T18:40:07.503Z,34.80
2023-12-09T18:42:35.900Z,36.43
2023-12-09T18:45:04.984Z,41.63
2023-12-09T18:47:35.156Z,35.80
2023-12-09T18:50:04.331Z,31.37
2023-12-09T18:52:33.480Z,33.40
2023-12-09T18:55:01.612Z,33.07
2023-12-09T18:57:29.782Z,37.43
2023-12-09T18:59:57.980Z,36.00
2023-12-09T19:02:26.102Z,36.20
2023-12-09T19:04:55.639Z,31.20
2023-12-09T19:07:24.938Z,31.13
2023-12-09T19:09:53.137Z,38.13
2023-12-09T19:12:21.404Z,33.20
2023-12-09T19:14:49.581Z,38.40
2023-12-09T19:17:17.768Z,37.13
2023-12-09T19:19:46.722Z,41.67
2023-12-09T19:22:16.520Z,30.63
2023-12-09T19:24:44.838Z,28.00
2023-12-09T19:27:13.334Z,40.77
2023-12-09T19:29:41.586Z,40.47
2023-12-09T19:32:09.866Z,34.90
2023-12-09T19:34:38.059Z,38.23
2023-12-09T19:37:06.815Z,41.10
2023-12-09T19:39:36.335Z,31.23
2023-12-09T19:42:04.803Z,31.70
2023-12-09T19:44:32.997Z,39.47
2023-12-09T19:47:01.093Z,30.20
2023-12-09T19:49:31.896Z,42.33
2023-12-09T19:52:00.206Z,31.20
2023-12-09T19:54:28.439Z,35.43
2023-12-09T19:56:58.238Z,28.17
2023-12-09T19:59:26.396Z,33.40
2023-12-09T20:01:54.569Z,29.07
2023-12-09T20:04:23.029Z,34.00
2023-12-09T20:06:51.965Z,34.43
2023-12-09T20:09:20.797Z,35.93
2023-12-09T20:11:49.049Z,32.67
2023-12-09T20:14:18.563Z,31.33
2023-12-09T20:16:46.678Z,32.33
2023-12-09T20:19:15.094Z,27.73
2023-12-09T20:21:43.300Z,26.50
2023-12-09T20:24:12.164Z,32.60
2023-12-09T20:26:40.371Z,28.87
2023-12-09T20:29:08.493Z,37.03
2023-12-09T20:31:38.020Z,26.93
2023-12-09T20:34:06.331Z,31.07
2023-12-09T20:36:34.580Z,27.73
2023-12-09T20:39:02.751Z,42.87
2023-12-09T20:41:30.864Z,35.40
2023-12-09T20:43:59.048Z,32.53
2023-12-09T20:46:28.706Z,30.00
2023-12-09T20:48:58.306Z,46.57
2023-12-09T20:51:26.520Z,37.40
2023-12-09T20:53:54.759Z,39.47
2023-12-09T20:56:22.946Z,33.83
2023-12-09T20:58:51.090Z,31.97
2023-12-09T21:01:19.353Z,32.33
2023-12-09T21:03:47.593Z,31.87
2023-12-09T21:06:18.153Z,33.37
2023-12-09T21:08:46.314Z,36.30
2023-12-09T21:11:14.932Z,35.00
2023-12-09T21:13:43.171Z,35.57
2023-12-09T21:16:11.328Z,35.00
2023-12-09T21:18:39.692Z,38.63
2023-12-09T21:21:08.868Z,35.40
2023-12-09T21:23:38.624Z,33.07
2023-12-09T21:26:07.011Z,46.07
2023-12-09T21:28:35.182Z,43.47
2023-12-09T21:31:03.870Z,40.83
2023-12-09T21:33:32.234Z,27.97
2023-12-09T21:36:00.412Z,40.87
2023-12-09T21:38:28.651Z,35.07
2023-12-09T21:40:58.181Z,33.80
2023-12-09T21:43:27.513Z,47.27
2023-12-09T21:45:55.760Z,39.57
2023-12-09T21:48:24.152Z,43.13
2023-12-09T21:50:52.465Z,32.80
2023-12-09T21:53:20.596Z,40.20
2023-12-09T21:55:48.734Z,37.57
2023-12-09T21:58:20.375Z,28.10
2023-12-09T22:00:48.946Z,34.80
2023-12-09T22:03:17.722Z,32.73
2023-12-09T22:05:45.896Z,27.63
2023-12-09T22:08:14.271Z,36.30
2023-12-09T22:10:42.578Z,29.57
2023-12-09T22:13:10.771Z,32.27
2023-12-09T22:15:39.642Z,35.90
2023-12-09T22:18:07.949Z,35.77
2023-12-09T22:20:36.186Z,30.40
2023-12-09T22:23:04.328Z,23.33
2023-12-09T22:25:32.474Z,34.60
2023-12-09T22:28:00.580Z,33.43
2023-12-09T22:30:28.764Z,25.20
2023-12-09T22:32:58.500Z,29.60
2023-12-09T22:35:27.048Z,35.97
2023-12-09T22:37:55.230Z,31.07
2023-12-09T22:40:23.472Z,30.90
2023-12-09T22:42:53.122Z,36.37
2023-12-09T22:45:21.447Z,25.57
2023-12-09T22:47:49.820Z,28.97
2023-12-09T22:50:19.572Z,23.63
2023-12-09T22:52:48.034Z,24.83
2023-12-09T22:55:16.295Z,30.83
2023-12-09T22:57:44.522Z,25.20
2023-12-09T23:00:19.436Z,29.30
2023-12-09T23:02:48.034Z,34.77
2023-12-09T23:05:16.311Z,24.47
2023-12-09T23:07:45.854Z,27.40
2023-12-09T23:10:14.321Z,26.40
2023-12-09T23:12:42.609Z,30.90
2023-12-09T23:15:13.714Z,33.23
2023-12-09T23:17:41.893Z,19.83
2023-12-09T23:20:11.406Z,23.13
2023-12-09T23:22:39.561Z,29.57
2023-12-09T23:25:12.043Z,33.33
2023-12-09T23:27:40.276Z,30.50
2023-12-09T23:30:09.427Z,24.17
2023-12-09T23:32:37.648Z,25.73
2023-12-09T23:35:06.487Z,28.47
2023-12-09T23:37:34.587Z,28.13
2023-12-09T23:40:02.740Z,30.57
2023-12-09T23:42:32.694Z,23.07
2023-12-09T23:45:01.050Z,26.37
2023-12-09T23:47:29.394Z,18.93
2023-12-09T23:49:57.551Z,29.43
2023-12-09T23:52:28.421Z,25.17
2023-12-09T23:54:56.783Z,33.53
2023-12-09T23:57:25.013Z,22.13
2023-12-09T23:59:54.964Z,18.13
